Storm Events Database

Event Details

Event Tornado
-- Scale EF1
-- Length 1.1 Miles
-- Width 50 Yards
State ARKANSAS
County/Area FAULKNER
WFO LZK
Report Source NWS Storm Survey
NCDC Data Source CSV
Begin Date 2011-04-25 18:06:00.0 CST-6
Begin Location 0NNW WOOSTER
Begin Lat/Lon 35.21/-92.47
End Date 2011-04-25 18:08:00.0 CST-6
End Location 1NE WOOSTER
End Lat/Lon 35.21/-92.46
Deaths Direct/Indirect 0/0 (fatality details below, when available...)
Injuries Direct/Indirect 0/0
Property Damage 100.00K
Crop Damage 0.00K
Episode Narrative From the 24th through the 27th, the arrival of a slow-moving cold front and several low pressure areas aloft triggered several rounds of thunderstorms. Tornadoes, severe storms, and flash flooding resulted. Widespread areal flooding followed the flash flooding. Some of this flooding was due to heavy rain, while some of it was caused by water from rivers, creeks, and bayous backing up onto the land. On the evening of the 25th, devastating tornadoes affected several areas in central Arkansas. More than 140,000 electric customers in Arkansas lost power. Heavy rains during this period were the beginning of the Great Flood of 2011 in Arkansas. Much of the flooding lasted well into May, and some even continued all the way to late June.
Event Narrative This tornado knocked down or snapped numerous trees and a few power lines. Several houses had roof damage from falling trees. One house had a gutter ripped off and one of the eaves damaged by a falling tree.


     ‚Äč



All events for this episode:

Location County/Zone St. Date Time T.Z. Type Mag Dth Inj PrD CrD
Totals: 7 59 240.082M 0.00K
JERUSALEM CONWAY CO. AR 04/24/2011 13:17 CST-6 Hail 1.50 in. 0 0 0.00K 0.00K
ASH FLAT SHARP CO. AR 04/24/2011 13:46 CST-6 Hail 1.00 in. 0 0 0.00K 0.00K
ELGIN JACKSON CO. AR 04/24/2011 16:14 CST-6 Funnel Cloud 0 0 0.00K 0.00K
CORLEY LOGAN CO. AR 04/24/2011 19:36 CST-6 Hail 2.75 in. 0 0 0.00K 0.00K
GREEN RIDGE SCOTT CO. AR 04/24/2011 19:38 CST-6 Hail 1.00 in. 0 0 0.00K 0.00K
GREEN RIDGE SCOTT CO. AR 04/24/2011 19:38 CST-6 Thunderstorm Wind 52 kts. MG 0 0 0.00K 0.00K
BLUE MTN LAKE YELL CO. AR 04/24/2011 19:41 CST-6 Hail 1.00 in. 0 0 0.00K 0.00K
HAVANA YELL CO. AR 04/24/2011 19:49 CST-6 Hail 1.75 in. 0 0 0.00K 0.00K
MT GEORGE YELL CO. AR 04/24/2011 20:40 CST-6 Hail 2.75 in. 0 0 0.00K 0.00K
ST VINCENT CONWAY CO. AR 04/24/2011 21:02 CST-6 Thunderstorm Wind 52 kts. EG 0 0 5.00K 0.00K
WALDRON SCOTT CO. AR 04/24/2011 21:13 CST-6 Flash Flood 0 0 2.00K 0.00K
WICKES POLK CO. AR 04/24/2011 21:27 CST-6 Thunderstorm Wind 52 kts. EG 0 0 60.00K 0.00K
ATKINS POPE CO. AR 04/24/2011 22:30 CST-6 Hail 1.00 in. 0 0 0.00K 0.00K
CADDO VLY CLARK CO. AR 04/25/2011 07:07 CST-6 Thunderstorm Wind 52 kts. EG 0 0 8.00K 0.00K
SHADY POLK CO. AR 04/25/2011 13:47 CST-6 Thunderstorm Wind 52 kts. EG 0 0 5.00K 0.00K
BIG FORK POLK CO. AR 04/25/2011 13:55 CST-6 Tornado EF1 0 0 200.00K 0.00K
PINE RIDGE MONTGOMERY CO. AR 04/25/2011 14:00 CST-6 Tornado EF1 0 0 50.00K 0.00K
(HRO)HARRISON ARPT BOONE CO. AR 04/25/2011 14:53 CST-6 Heavy Rain 0 0 0.00K 0.00K
(HRO)HARRISON ARPT BOONE CO. AR 04/25/2011 15:00 CST-6 Flash Flood 0 0 1.000M 0.00K
KIRBY PIKE CO. AR 04/25/2011 15:13 CST-6 Funnel Cloud 0 0 0.00K 0.00K
OXFORD IZARD CO. AR 04/25/2011 15:15 CST-6 Flash Flood 0 0 10.00K 0.00K
HAMILTON GARLAND CO. AR 04/25/2011 15:24 CST-6 Tornado EF1 0 0 500.00K 0.00K
ROSBORO PIKE CO. AR 04/25/2011 15:35 CST-6 Tornado EF1 0 0 25.00K 0.00K
ELECTRIC SALINE CO. AR 04/25/2011 15:38 CST-6 Tornado EF1 0 0 100.00K 0.00K
ELM CLARK CO. AR 04/25/2011 15:39 CST-6 Thunderstorm Wind 52 kts. EG 0 0 10.00K 0.00K
WELSH MONTGOMERY CO. AR 04/25/2011 15:39 CST-6 Thunderstorm Wind 52 kts. EG 0 0 15.00K 0.00K
AMITY CLARK CO. AR 04/25/2011 15:40 CST-6 Tornado EF1 0 0 40.00K 0.00K
ELM CLARK CO. AR 04/25/2011 15:40 CST-6 Funnel Cloud 0 0 0.00K 0.00K
WELSH MONTGOMERY CO. AR 04/25/2011 15:43 CST-6 Tornado EF1 0 0 100.00K 0.00K
BONNERDALE HOT SPRING CO. AR 04/25/2011 15:47 CST-6 Tornado EF1 0 0 75.00K 0.00K
GLENWOOD PIKE CO. AR 04/25/2011 15:47 CST-6 Funnel Cloud 0 0 0.00K 0.00K
MEYERS GARLAND CO. AR 04/25/2011 15:49 CST-6 Tornado EF1 0 0 50.00K 0.00K
ROYAL GARLAND CO. AR 04/25/2011 15:52 CST-6 Funnel Cloud 0 0 0.00K 0.00K
MADDOX GARLAND CO. AR 04/25/2011 15:56 CST-6 Tornado EF2 0 9 3.000M 0.00K
BALLARD SHARP CO. AR 04/25/2011 16:00 CST-6 Flash Flood 0 0 10.00K 0.00K
CASA PERRY CO. AR 04/25/2011 16:00 CST-6 Flash Flood 1 0 10.00K 0.00K
DAISY PIKE CO. AR 04/25/2011 16:00 CST-6 Tornado EF1 0 0 200.00K 0.00K
MADDOX GARLAND CO. AR 04/25/2011 16:02 CST-6 Tornado EF2 0 10 5.000M 0.00K
MANFRED MONTGOMERY CO. AR 04/25/2011 16:09 CST-6 Flash Flood 0 0 5.00K 0.00K
MOUNTAIN HOME BAXTER CO. AR 04/25/2011 16:14 CST-6 Thunderstorm Wind 59 kts. MG 0 0 2.00K 0.00K
MOUNTAIN HOME BAXTER CO. AR 04/25/2011 16:15 CST-6 Hail 1.25 in. 0 0 0.00K 0.00K
BONNERDALE HOT SPRING CO. AR 04/25/2011 16:44 CST-6 Thunderstorm Wind 52 kts. EG 0 0 2.00K 0.00K
PINEY GARLAND CO. AR 04/25/2011 16:58 CST-6 Funnel Cloud 0 0 0.00K 0.00K
SUNSHINE GARLAND CO. AR 04/25/2011 17:01 CST-6 Hail 1.00 in. 0 0 0.00K 0.00K
CRYSTAL SPGS GARLAND CO. AR 04/25/2011 17:07 CST-6 Hail 1.75 in. 0 0 0.00K 0.00K
OZARK LITHIA GARLAND CO. AR 04/25/2011 17:07 CST-6 Tornado EF3 1 20 21.000M 0.00K
PINEY GARLAND CO. AR 04/25/2011 17:10 CST-6 Hail 1.00 in. 0 0 0.00K 0.00K
(HOT)HOT SPGS ARPT GARLAND CO. AR 04/25/2011 17:13 CST-6 Hail 1.00 in. 0 0 0.00K 0.00K
HOT SPGS GARLAND CO. AR 04/25/2011 17:15 CST-6 Hail 1.75 in. 0 0 0.00K 0.00K
PLEASANT HILL GARLAND CO. AR 04/25/2011 17:15 CST-6 Flash Flood 0 0 400.00K 0.00K
HOT SPRINGS VILLAGE SALINE CO. AR 04/25/2011 17:16 CST-6 Tornado EF1 0 0 2.000M 0.00K
THORNBURG PERRY CO. AR 04/25/2011 17:21 CST-6 Tornado EF1 0 0 700.00K 0.00K
PISGAH PIKE CO. AR 04/25/2011 17:29 CST-6 Tornado EF1 0 0 100.00K 0.00K
MT MORIAH HOT SPRING CO. AR 04/25/2011 17:30 CST-6 Flash Flood 0 0 20.00K 0.00K
PERRYVILLE PERRY CO. AR 04/25/2011 17:30 CST-6 Thunderstorm Wind 52 kts. EG 0 0 15.00K 0.00K
PARON SALINE CO. AR 04/25/2011 17:34 CST-6 Thunderstorm Wind 52 kts. EG 0 0 50.00K 0.00K
JONES MILL HOT SPRING CO. AR 04/25/2011 17:40 CST-6 Thunderstorm Wind 52 kts. EG 0 0 15.00K 0.00K
OPPELO CONWAY CO. AR 04/25/2011 17:40 CST-6 Thunderstorm Wind 61 kts. EG 0 0 0.00K 0.00K
FERNDALE PULASKI CO. AR 04/25/2011 17:48 CST-6 Tornado EF1 0 0 800.00K 0.00K
WYE PULASKI CO. AR 04/25/2011 17:48 CST-6 Tornado EF1 0 0 250.00K 0.00K
SLOCOMB SALINE CO. AR 04/25/2011 17:52 CST-6 Thunderstorm Wind 52 kts. EG 0 0 15.00K 0.00K
SUNSHINE GARLAND CO. AR 04/25/2011 17:53 CST-6 Thunderstorm Wind 70 kts. EG 0 0 0.00K 0.00K
MORRILTON CONWAY CO. AR 04/25/2011 17:59 CST-6 Flash Flood 0 0 15.00K 0.00K
BENTON SALINE CO. AR 04/25/2011 18:00 CST-6 Funnel Cloud 0 0 0.00K 0.00K
FRIENDSHIP HOT SPRING CO. AR 04/25/2011 18:00 CST-6 Thunderstorm Wind 52 kts. EG 0 0 40.00K 0.00K
BENTON SALINE CO. AR 04/25/2011 18:01 CST-6 Thunderstorm Wind 52 kts. EG 0 0 10.00K 0.00K
PALARM FAULKNER CO. AR 04/25/2011 18:01 CST-6 Tornado EF1 0 0 5.00K 0.00K
NATURAL STEPS PULASKI CO. AR 04/25/2011 18:02 CST-6 Tornado EF1 0 1 300.00K 0.00K
COLLEGEVILLE SALINE CO. AR 04/25/2011 18:03 CST-6 Funnel Cloud 0 0 0.00K 0.00K
(HOT)HOT SPGS ARPT GARLAND CO. AR 04/25/2011 18:04 CST-6 Thunderstorm Wind 55 kts. MG 0 0 0.00K 0.00K
MAUMELLE PULASKI CO. AR 04/25/2011 18:05 CST-6 Hail 0.75 in. 0 0 0.00K 0.00K
WOOSTER FAULKNER CO. AR 04/25/2011 18:06 CST-6 Tornado EF1 0 0 100.00K 0.00K
MAYFLOWER FAULKNER CO. AR 04/25/2011 18:08 CST-6 Tornado EF2 4 15 52.000M 0.00K
MALVERN HOT SPRING CO. AR 04/25/2011 18:11 CST-6 Hail 1.00 in. 0 0 0.00K 0.00K
ALEXANDER SALINE CO. AR 04/25/2011 18:15 CST-6 Thunderstorm Wind 52 kts. EG 0 0 50.00K 0.00K
EAST END SALINE CO. AR 04/25/2011 18:15 CST-6 Thunderstorm Wind 52 kts. EG 0 0 10.00K 0.00K
CABOT LONOKE CO. AR 04/25/2011 18:18 CST-6 Thunderstorm Wind 52 kts. EG 0 0 75.00K 0.00K
IVESVILLE PULASKI CO. AR 04/25/2011 18:19 CST-6 Hail 1.75 in. 0 0 0.00K 0.00K
HALSTEAD PULASKI CO. AR 04/25/2011 18:20 CST-6 Hail 1.00 in. 0 0 0.00K 0.00K
DOUGLASVILLE PULASKI CO. AR 04/25/2011 18:25 CST-6 Hail 1.75 in. 0 0 0.00K 0.00K
CAMMACK VLG PULASKI CO. AR 04/25/2011 18:29 CST-6 Thunderstorm Wind 52 kts. EG 0 0 50.00K 0.00K
HAMMONSVILLE WHITE CO. AR 04/25/2011 18:38 CST-6 Tornado EF1 0 0 300.00K 0.00K
OLMSTEAD PULASKI CO. AR 04/25/2011 18:38 CST-6 Funnel Cloud 0 0 0.00K 0.00K
ORION GRANT CO. AR 04/25/2011 18:40 CST-6 Thunderstorm Wind 52 kts. EG 0 0 25.00K 0.00K
LEVY PULASKI CO. AR 04/25/2011 18:45 CST-6 Thunderstorm Wind 52 kts. EG 0 0 50.00K 0.00K
SHADY GROVE PULASKI CO. AR 04/25/2011 18:45 CST-6 Thunderstorm Wind 52 kts. EG 0 0 0.00K 0.00K
(LIT)LITTLE ROCK ADA PULASKI CO. AR 04/25/2011 18:46 CST-6 Thunderstorm Wind 57 kts. MG 0 0 0.00K 0.00K
LYNCH PULASKI CO. AR 04/25/2011 18:46 CST-6 Tornado EF2 0 4 125.000M 0.00K
MC ALMONT PULASKI CO. AR 04/25/2011 18:50 CST-6 Thunderstorm Wind 52 kts. EG 0 0 15.00K 0.00K
OLMSTEAD PULASKI CO. AR 04/25/2011 18:52 CST-6 Thunderstorm Wind 52 kts. EG 0 0 75.00K 0.00K
WAMPOO PULASKI CO. AR 04/25/2011 18:53 CST-6 Tornado EF1 0 0 40.00K 0.00K
ENGLAND FLYING SVC A LONOKE CO. AR 04/25/2011 18:55 CST-6 Tornado EF1 0 0 350.00K 0.00K
(LRF)LITTLE ROCK AFB PULASKI CO. AR 04/25/2011 18:58 CST-6 Thunderstorm Wind 59 kts. MG 0 0 0.00K 0.00K
CABOT LONOKE CO. AR 04/25/2011 19:00 CST-6 Thunderstorm Wind 65 kts. EG 0 0 75.00K 0.00K
GRAVEL RIDGE PULASKI CO. AR 04/25/2011 19:00 CST-6 Flash Flood 0 0 20.00K 0.00K
AUSTIN LONOKE CO. AR 04/25/2011 19:05 CST-6 Thunderstorm Wind 54 kts. MG 0 0 5.00K 0.00K
CABOT LONOKE CO. AR 04/25/2011 19:05 CST-6 Funnel Cloud 0 0 0.00K 0.00K
LONOKE LONOKE CO. AR 04/25/2011 19:05 CST-6 Thunderstorm Wind 61 kts. EG 0 0 200.00K 0.00K
LONOKE LONOKE CO. AR 04/25/2011 19:06 CST-6 Hail 1.00 in. 0 0 0.00K 0.00K
CROSSROAD PRAIRIE CO. AR 04/25/2011 19:15 CST-6 Tornado EF1 0 0 25.00K 0.00K
STONY PT WHITE CO. AR 04/25/2011 19:24 CST-6 Tornado EF1 0 0 1.000M 0.00K
MC CRORY WOODRUFF CO. AR 04/25/2011 19:47 CST-6 Thunderstorm Wind 52 kts. EG 0 0 30.00K 0.00K
CUSHMAN INDEPENDENCE CO. AR 04/25/2011 20:15 CST-6 Flash Flood 0 0 200.00K 0.00K
JONES MILL HOT SPRING CO. AR 04/25/2011 22:00 CST-6 Flash Flood 0 0 25.00K 0.00K
ALLISON STONE CO. AR 04/26/2011 02:00 CST-6 Flood 0 0 400.00K 0.00K
ALREAD VAN BUREN CO. AR 04/26/2011 02:00 CST-6 Flood 0 0 600.00K 0.00K
AMITY CLARK CO. AR 04/26/2011 02:00 CST-6 Flood 0 0 200.00K 0.00K
AUSTIN LONOKE CO. AR 04/26/2011 02:00 CST-6 Flood 0 0 325.00K 0.00K
CARTHAGE DALLAS CO. AR 04/26/2011 02:00 CST-6 Flood 0 0 250.00K 0.00K
CLARKRIDGE BAXTER CO. AR 04/26/2011 02:00 CST-6 Flood 0 0 300.00K 0.00K
COMPTON NEWTON CO. AR 04/26/2011 02:00 CST-6 Flood 0 0 1.500M 0.00K
CUSHMAN INDEPENDENCE CO. AR 04/26/2011 02:00 CST-6 Flood 0 0 600.00K 0.00K
EAST END SALINE CO. AR 04/26/2011 02:00 CST-6 Flood 0 0 1.000M 0.00K
FITZHUGH WOODRUFF CO. AR 04/26/2011 02:00 CST-6 Flood 0 0 100.00K 0.00K
GRADY LINCOLN CO. AR 04/26/2011 02:00 CST-6 Flood 0 0 750.00K 0.00K
HICKORY FLAT WHITE CO. AR 04/26/2011 02:00 CST-6 Flood 0 0 2.250M 0.00K
HORSESHOE BEND IZARD CO. AR 04/26/2011 02:00 CST-6 Flood 0 0 2.000M 0.00K
HOUSTON PERRY CO. AR 04/26/2011 02:00 CST-6 Flood 0 0 300.00K 0.00K
ICO GRANT CO. AR 04/26/2011 02:00 CST-6 Flood 0 0 100.00K 0.00K
JERUSALEM CONWAY CO. AR 04/26/2011 02:00 CST-6 Flood 0 0 500.00K 0.00K
JESSIEVILLE GARLAND CO. AR 04/26/2011 02:00 CST-6 Flood 0 0 1.000M 0.00K
JONES MILL HOT SPRING CO. AR 04/26/2011 02:00 CST-6 Flood 0 0 100.00K 0.00K
LANGLEY PIKE CO. AR 04/26/2011 02:00 CST-6 Flood 0 0 350.00K 0.00K
MT ZION CLEVELAND CO. AR 04/26/2011 02:00 CST-6 Flood 0 0 100.00K 0.00K
OARK JOHNSON CO. AR 04/26/2011 02:00 CST-6 Flood 0 0 250.00K 0.00K
OMAHA BOONE CO. AR 04/26/2011 02:00 CST-6 Flood 0 0 500.00K 0.00K
PARIS LOGAN CO. AR 04/26/2011 02:00 CST-6 Flood 0 0 100.00K 0.00K
PEEL MARION CO. AR 04/26/2011 02:00 CST-6 Flood 0 0 200.00K 0.00K
PELSOR POPE CO. AR 04/26/2011 02:00 CST-6 Flood 0 0 200.00K 0.00K
PENCIL BLUFF MONTGOMERY CO. AR 04/26/2011 02:00 CST-6 Flood 0 0 250.00K 0.00K
PINDALL SEARCY CO. AR 04/26/2011 02:00 CST-6 Flood 0 0 750.00K 0.00K
PRIM CLEBURNE CO. AR 04/26/2011 02:00 CST-6 Flood 0 0 1.000M 0.00K
READER OUACHITA CO. AR 04/26/2011 02:00 CST-6 Flood 0 0 100.00K 0.00K
REDFIELD JEFFERSON CO. AR 04/26/2011 02:00 CST-6 Flood 0 0 100.00K 0.00K
RICH MTN POLK CO. AR 04/26/2011 02:00 CST-6 Flood 0 0 150.00K 0.00K
ROCK SPGS DREW CO. AR 04/26/2011 02:00 CST-6 Flood 0 0 100.00K 0.00K
STUTTGART ARKANSAS CO. AR 04/26/2011 02:00 CST-6 Flood 0 0 100.00K 0.00K
SWIFTON JACKSON CO. AR 04/26/2011 02:00 CST-6 Flood 0 0 125.00K 0.00K
THORNTON CALHOUN CO. AR 04/26/2011 02:00 CST-6 Flood 0 0 100.00K 0.00K
TWIN GROVES FAULKNER CO. AR 04/26/2011 02:00 CST-6 Flood 0 0 1.000M 0.00K
VIDETTE FULTON CO. AR 04/26/2011 02:00 CST-6 Flood 0 0 1.400M 0.00K
WARREN BRADLEY CO. AR 04/26/2011 02:00 CST-6 Flood 0 0 100.00K 0.00K
WAVELAND YELL CO. AR 04/26/2011 02:00 CST-6 Flood 0 0 125.00K 0.00K
WIRTH SHARP CO. AR 04/26/2011 02:00 CST-6 Flood 0 0 1.000M 0.00K
WYE PULASKI CO. AR 04/26/2011 02:00 CST-6 Flood 0 0 1.000M 0.00K
ZENT MONROE CO. AR 04/26/2011 02:00 CST-6 Flood 0 0 275.00K 0.00K
SPARKMAN DALLAS CO. AR 04/26/2011 15:10 CST-6 Hail 2.75 in. 0 0 0.00K 0.00K
ICO GRANT CO. AR 04/26/2011 15:15 CST-6 Hail 0.75 in. 0 0 0.00K 0.00K
GOULD LINCOLN CO. AR 04/26/2011 15:46 CST-6 Hail 1.75 in. 0 0 0.00K 0.00K
SHERIDAN GRANT CO. AR 04/26/2011 15:46 CST-6 Hail 1.00 in. 0 0 0.00K 0.00K
SHERIDAN GRANT CO. AR 04/26/2011 15:53 CST-6 Hail 1.00 in. 0 0 0.00K 0.00K
STAR CITY LINCOLN CO. AR 04/26/2011 15:59 CST-6 Hail 1.75 in. 0 0 0.00K 0.00K
MARCHE PULASKI CO. AR 04/26/2011 16:00 CST-6 Hail 1.00 in. 0 0 0.00K 0.00K
GETHSEMANE JEFFERSON CO. AR 04/26/2011 16:09 CST-6 Funnel Cloud 0 0 0.00K 0.00K
GOULD LINCOLN CO. AR 04/26/2011 16:09 CST-6 Hail 1.75 in. 0 0 0.00K 0.00K
WATSON CHAPEL JEFFERSON CO. AR 04/26/2011 16:10 CST-6 Hail 1.00 in. 0 0 0.00K 0.00K
STAR CITY LINCOLN CO. AR 04/26/2011 16:11 CST-6 Hail 2.00 in. 0 0 0.00K 0.00K
COY LONOKE CO. AR 04/26/2011 16:14 CST-6 Tornado EF1 0 0 1.750M 0.00K
GILLETT ARKANSAS CO. AR 04/26/2011 16:15 CST-6 Funnel Cloud 0 0 0.00K 0.00K
PINE BLUFF JEFFERSON CO. AR 04/26/2011 16:18 CST-6 Hail 1.75 in. 0 0 0.00K 0.00K
PERRYVILLE PERRY CO. AR 04/26/2011 16:22 CST-6 Hail 1.75 in. 0 0 0.00K 0.00K
(ORK)NO LITTLE ROCK ARPT PULASKI CO. AR 04/26/2011 16:25 CST-6 Hail 0.75 in. 0 0 0.00K 0.00K
HOOKER JEFFERSON CO. AR 04/26/2011 16:25 CST-6 Hail 1.00 in. 0 0 0.00K 0.00K
INDIANA SPUR ARKANSAS CO. AR 04/26/2011 16:43 CST-6 Hail 1.00 in. 0 0 0.00K 0.00K
DE WITT ARKANSAS CO. AR 04/26/2011 16:45 CST-6 Hail 1.75 in. 0 0 0.00K 0.00K
GRADY LINCOLN CO. AR 04/26/2011 16:45 CST-6 Hail 2.00 in. 0 0 0.00K 0.00K
STAFFORD YELL CO. AR 04/26/2011 16:53 CST-6 Funnel Cloud 0 0 0.00K 0.00K
RUSSELLVILLE POPE CO. AR 04/26/2011 17:00 CST-6 Thunderstorm Wind 52 kts. EG 0 0 20.00K 0.00K
MALLET TOWN CONWAY CO. AR 04/26/2011 17:02 CST-6 Hail 1.75 in. 0 0 0.00K 0.00K
NORTH DARDANELLE POPE CO. AR 04/26/2011 17:03 CST-6 Funnel Cloud 0 0 0.00K 0.00K
CONWAY FAULKNER CO. AR 04/26/2011 17:09 CST-6 Funnel Cloud 0 0 0.00K 0.00K
RUSSELLVILLE POPE CO. AR 04/26/2011 17:10 CST-6 Funnel Cloud 0 0 0.00K 0.00K
ST CHARLES ARKANSAS CO. AR 04/26/2011 17:15 CST-6 Thunderstorm Wind 52 kts. EG 0 0 1.00K 0.00K
SPRINGHILL FAULKNER CO. AR 04/26/2011 17:17 CST-6 Hail 0.75 in. 0 0 0.00K 0.00K
DOVER POPE CO. AR 04/26/2011 17:20 CST-6 Hail 1.50 in. 0 0 0.00K 0.00K
BARNEY FAULKNER CO. AR 04/26/2011 17:23 CST-6 Hail 1.00 in. 0 0 0.00K 0.00K
GREENBRIER FAULKNER CO. AR 04/26/2011 17:23 CST-6 Hail 1.00 in. 0 0 0.00K 0.00K
GREENBRIER FAULKNER CO. AR 04/26/2011 17:23 CST-6 Hail 1.00 in. 0 0 0.00K 0.00K
GREENBRIER FAULKNER CO. AR 04/26/2011 17:26 CST-6 Flash Flood 0 0 2.00K 0.00K
NAYLOR FAULKNER CO. AR 04/26/2011 17:32 CST-6 Tornado EF1 0 0 15.00K 0.00K
HAMMONSVILLE WHITE CO. AR 04/26/2011 17:36 CST-6 Tornado EF1 0 0 25.00K 0.00K
ARGO VAN BUREN CO. AR 04/26/2011 18:04 CST-6 Hail 1.75 in. 0 0 0.00K 0.00K
CHOCTAW VAN BUREN CO. AR 04/26/2011 18:08 CST-6 Funnel Cloud 0 0 0.00K 0.00K
GREERS FERRY CLEBURNE CO. AR 04/26/2011 18:15 CST-6 Thunderstorm Wind 52 kts. EG 0 0 10.00K 0.00K
WICKES POLK CO. AR 04/26/2011 18:17 CST-6 Tornado EF1 0 0 20.00K 0.00K
VELVET RIDGE WHITE CO. AR 04/26/2011 18:18 CST-6 Funnel Cloud 0 0 0.00K 0.00K
RUSSELLVILLE POPE CO. AR 04/26/2011 18:55 CST-6 Hail 0.75 in. 0 0 0.00K 0.00K
JUDSONIA WHITE CO. AR 04/26/2011 19:03 CST-6 Hail 1.75 in. 0 0 0.00K 0.00K
ONIA STONE CO. AR 04/26/2011 19:25 CST-6 Thunderstorm Wind 52 kts. EG 0 0 10.00K 0.00K
TIMBO STONE CO. AR 04/26/2011 19:25 CST-6 Thunderstorm Wind 52 kts. EG 0 0 10.00K 0.00K
BONO FAULKNER CO. AR 04/26/2011 19:45 CST-6 Flash Flood 0 0 20.00K 0.00K
GRANGE SHARP CO. AR 04/26/2011 20:10 CST-6 Thunderstorm Wind 70 kts. EG 1 0 125.00K 0.00K
SHELBYVILLE SHARP CO. AR 04/26/2011 20:30 CST-6 Thunderstorm Wind 61 kts. EG 0 0 200.00K 0.00K
WATSON DESHA CO. AR 04/26/2011 22:55 CST-6 Thunderstorm Wind 61 kts. EG 0 0 200.00K 0.00K
COLEMAN DREW CO. AR 04/27/2011 06:57 CST-6 Funnel Cloud 0 0 0.00K 0.00K
BROWNSVILLE LOGAN CO. AR 04/27/2011 08:05 CST-6 Hail 1.00 in. 0 0 0.00K 0.00K
HARTMAN JOHNSON CO. AR 04/27/2011 08:32 CST-6 Hail 1.75 in. 0 0 0.00K 0.00K
HARMONY JOHNSON CO. AR 04/27/2011 08:38 CST-6 Hail 1.75 in. 0 0 0.00K 0.00K
HARMONY JOHNSON CO. AR 04/27/2011 08:38 CST-6 Hail 1.00 in. 0 0 0.00K 0.00K
LURTON NEWTON CO. AR 04/27/2011 09:32 CST-6 Hail 1.75 in. 0 0 0.00K 0.00K
OULA STONE CO. AR 04/27/2011 10:32 CST-6 Hail 1.00 in. 0 0 0.00K 0.00K
BEVERAGE TOWN VAN BUREN CO. AR 04/27/2011 11:18 CST-6 Hail 1.75 in. 0 0 0.00K 0.00K
REPUBLICAN FAULKNER CO. AR 04/27/2011 11:51 CST-6 Hail 1.50 in. 0 0 0.00K 0.00K
PANGBURN WHITE CO. AR 04/27/2011 12:40 CST-6 Hail 1.00 in. 0 0 0.00K 0.00K
MIDWAY WHITE CO. AR 04/27/2011 13:00 CST-6 Thunderstorm Wind 52 kts. EG 0 0 5.00K 0.00K
VELVET RIDGE WHITE CO. AR 04/27/2011 13:00 CST-6 Thunderstorm Wind 52 kts. EG 0 0 10.00K 0.00K
DENMARK JACKSON CO. AR 04/27/2011 13:05 CST-6 Thunderstorm Wind 61 kts. EG 0 0 70.00K 0.00K
DEPARTEE INDEPENDENCE CO. AR 04/27/2011 13:05 CST-6 Hail 1.75 in. 0 0 0.00K 0.00K
OIL TROUGH INDEPENDENCE CO. AR 04/27/2011 13:09 CST-6 Hail 1.75 in. 0 0 0.00K 0.00K
Totals: 7 59 240.082M 0.00K